Time;durP1;ratioP1;P1;durP2;ratioP2;P2;SDS_P1;SDS_P2;PMS_P1;PMS_P2;Temp;Humidity;BMP_temperature;BMP_pressure;BME280_temperature;BME280_humidity;BME280_pressure;Samples;Min_cycle;Max_cycle;Signal;HPM_P1;HPM_P2
2021/07/26 00:01:24;;;;;;;1999.90;999.90;;;;;;;19.63;44.24;100459.59;4791753;29;100347;-76
2021/07/26 00:03:52;;;;;;;1999.90;999.90;;;;;;;19.60;44.28;100459.69;4776143;29;96943;-75
2021/07/26 00:06:20;;;;;;;1999.90;999.90;;;;;;;19.56;44.31;100460.66;4777415;29;96810;-76
2021/07/26 00:08:50;;;;;;;1999.90;999.90;;;;;;;19.55;44.25;100453.50;4776784;29;99689;-76
2021/07/26 00:11:17;;;;;;;1999.90;999.90;;;;;;;19.53;44.25;100457.16;4772278;29;98175;-76
2021/07/26 00:13:45;;;;;;;1999.90;999.90;;;;;;;19.52;44.54;100447.25;4792863;29;97005;-76
2021/07/26 00:16:13;;;;;;;1999.90;999.90;;;;;;;19.51;44.16;100457.19;4793397;29;96912;-76
2021/07/26 00:18:41;;;;;;;1999.90;999.90;;;;;;;19.50;44.21;100455.38;4792175;29;97864;-76
2021/07/26 00:21:09;;;;;;;1999.90;999.90;;;;;;;19.48;44.66;100446.41;4793669;29;97590;-75
2021/07/26 00:23:37;;;;;;;1999.90;999.90;;;;;;;19.48;44.35;100446.41;4791992;29;97222;-76
2021/07/26 00:26:06;;;;;;;1999.90;999.90;;;;;;;19.48;44.71;100446.41;4794563;29;96870;-76
2021/07/26 00:28:34;;;;;;;1999.90;999.90;;;;;;;19.49;44.22;100448.22;4786661;29;100406;-75
2021/07/26 00:31:02;;;;;;;1999.90;999.90;;;;;;;19.44;44.64;100443.84;4808436;29;99211;-75
2021/07/26 00:34:07;;;;;;;1999.90;999.90;;;;;;;19.36;45.28;100435.91;4794449;29;96948;-75
2021/07/26 00:36:36;;;;;;;1999.90;999.90;;;;;;;19.35;44.94;100434.13;4795449;29;96955;-76
2021/07/26 00:39:06;;;;;;;1999.90;999.90;;;;;;;19.31;45.19;100429.72;4792438;29;99240;-75
2021/07/26 00:41:35;;;;;;;1999.90;999.90;;;;;;;19.26;44.93;100428.00;4792735;29;97665;-77
2021/07/26 00:44:04;;;;;;;1999.90;999.90;;;;;;;19.23;45.02;100430.72;4793396;29;96764;-77
2021/07/26 00:46:33;;;;;;;1999.90;999.90;;;;;;;19.19;45.31;100424.50;4792374;29;96853;-76
2021/07/26 00:49:03;;;;;;;1999.90;999.90;;;;;;;19.19;45.48;100427.22;4791922;29;99372;-76
2021/07/26 00:51:31;;;;;;;1999.90;999.90;;;;;;;19.17;45.04;100426.34;4793365;29;99259;-76
2021/07/26 00:53:59;;;;;;;1999.90;999.90;;;;;;;19.14;45.54;100423.72;4792648;29;96827;-76
2021/07/26 00:56:28;;;;;;;1999.90;999.90;;;;;;;19.11;45.25;100428.28;4794436;29;97007;-75
2021/07/26 00:58:57;;;;;;;1999.90;999.90;;;;;;;19.08;45.53;100423.81;4799845;29;98170;-77
2021/07/26 01:01:27;;;;;;;1999.90;999.90;;;;;;;19.06;45.79;100428.38;4809037;29;99319;-76
2021/07/26 01:03:55;;;;;;;1999.90;999.90;;;;;;;19.06;45.64;100432.88;4793562;29;96813;-77
2021/07/26 01:06:22;;;;;;;1999.90;999.90;;;;;;;19.05;46.06;100434.69;4793979;29;96842;-78
2021/07/26 01:08:50;;;;;;;1999.90;999.90;;;;;;;19.03;45.98;100433.81;4792410;29;97861;-76
2021/07/26 01:11:19;;;;;;;1999.90;999.90;;;;;;;19.01;46.09;100444.66;4792708;29;99297;-76
2021/07/26 01:13:47;;;;;;;1999.90;999.90;;;;;;;18.99;46.04;100437.47;4792826;29;97646;-76
2021/07/26 01:16:16;;;;;;;1999.90;999.90;;;;;;;18.98;46.39;100444.72;4792804;29;97334;-76
2021/07/26 01:18:44;;;;;;;1999.90;999.90;;;;;;;18.95;46.32;100449.28;4793228;29;99567;-75
2021/07/26 01:21:15;;;;;;;1999.90;999.90;;;;;;;18.92;46.22;100452.00;4778608;29;99145;-76
2021/07/26 01:23:45;;;;;;;1999.90;999.90;;;;;;;18.89;46.33;100450.28;4798792;29;96911;-76
2021/07/26 01:26:14;;;;;;;1999.90;999.90;;;;;;;18.84;46.31;100452.13;4792806;29;97156;-76
2021/07/26 01:28:43;;;;;;;1999.90;999.90;;;;;;;18.81;46.55;100451.31;4793501;29;100558;-77
2021/07/26 01:31:11;;;;;;;1999.90;999.90;;;;;;;18.78;46.61;100457.66;4792021;29;99238;-76
2021/07/26 01:33:40;;;;;;;1999.90;999.90;;;;;;;18.73;46.93;100467.63;4793758;29;96836;-76
2021/07/26 01:36:09;;;;;;;1999.90;999.90;;;;;;;18.71;46.66;100468.59;4792403;29;97403;-77
2021/07/26 01:38:38;;;;;;;1999.90;999.90;;;;;;;18.68;46.71;100463.19;4789130;29;100575;-77
2021/07/26 01:41:07;;;;;;;1999.90;999.90;;;;;;;18.67;47.04;100461.41;4774327;29;100382;-77
2021/07/26 01:43:38;;;;;;;1999.90;999.90;;;;;;;18.62;46.56;100463.31;4790593;29;96795;-77
2021/07/26 01:46:16;;;;;;;1999.90;999.90;;;;;;;18.59;46.72;100458.84;4804159;29;97226;-77
2021/07/26 01:48:50;;;;;;;1999.90;999.90;;;;;;;18.55;46.63;100465.19;4773828;29;99911;-77
2021/07/26 01:51:19;;;;;;;1999.90;999.90;;;;;;;18.53;46.96;100463.47;4785488;29;99408;-77
2021/07/26 01:53:48;;;;;;;1999.90;999.90;;;;;;;18.49;47.01;100468.03;4776032;29;96998;-76
2021/07/26 01:56:16;;;;;;;1999.90;999.90;;;;;;;18.46;46.94;100468.03;4791681;29;97273;-77
2021/07/26 01:58:44;;;;;;;1999.90;999.90;;;;;;;18.46;47.05;100461.78;4791220;29;98895;-77
2021/07/26 02:01:12;;;;;;;1999.90;999.90;;;;;;;18.43;46.97;100461.81;4789938;29;100740;-77
2021/07/26 02:03:40;;;;;;;1999.90;999.90;;;;;;;18.41;47.07;100463.66;4773435;29;97177;-78
2021/07/26 02:06:08;;;;;;;1999.90;999.90;;;;;;;18.39;47.00;100455.59;4773360;29;97207;-76
2021/07/26 02:08:36;;;;;;;1999.90;999.90;;;;;;;18.39;47.18;100462.78;4804967;29;97915;-75
2021/07/26 02:11:05;;;;;;;1999.90;999.90;;;;;;;18.37;47.14;100461.94;4790114;29;101084;-76
2021/07/26 02:13:35;;;;;;;1999.90;999.90;;;;;;;18.33;47.19;100463.75;4789868;29;96867;-76
2021/07/26 02:16:03;;;;;;;1999.90;999.90;;;;;;;18.31;47.14;100464.72;4789733;29;97000;-75
2021/07/26 02:18:31;;;;;;;1999.90;999.90;;;;;;;18.28;47.32;100468.34;4790105;29;99474;-76
2021/07/26 02:20:59;;;;;;;1999.90;999.90;;;;;;;18.25;47.48;100479.16;4790058;29;99403;-76
2021/07/26 02:23:27;;;;;;;1999.90;999.90;;;;;;;18.21;47.36;100482.81;4790382;29;96996;-76
2021/07/26 02:25:55;;;;;;;1999.90;999.90;;;;;;;18.17;47.59;100483.78;4791028;29;97314;-75
2021/07/26 02:28:24;;;;;;;1999.90;999.90;;;;;;;18.12;47.61;100490.13;4772866;29;99713;-76
2021/07/26 02:30:52;;;;;;;1999.90;999.90;;;;;;;18.06;47.63;100490.25;4789773;29;98157;-75
2021/07/26 02:33:20;;;;;;;1999.90;999.90;;;;;;;17.98;48.11;100488.50;4778884;29;96980;-76
2021/07/26 02:35:48;;;;;;;1999.90;999.90;;;;;;;17.97;47.80;100493.91;4790382;29;96969;-76
2021/07/26 02:38:16;;;;;;;1999.90;999.90;;;;;;;17.95;47.85;100493.03;4773548;29;99246;-78
2021/07/26 02:40:44;;;;;;;1999.90;999.90;;;;;;;17.91;47.78;100502.94;4789757;29;97858;-77
2021/07/26 02:43:12;;;;;;;1999.90;999.90;;;;;;;17.92;47.83;100493.06;4783095;29;96755;-76
2021/07/26 02:45:41;;;;;;;1999.90;999.90;;;;;;;17.90;47.99;100503.88;4789553;29;96737;-77
2021/07/26 02:48:10;;;;;;;1999.90;999.90;;;;;;;17.83;48.01;100501.28;4772452;29;101171;-76
2021/07/26 02:50:38;;;;;;;1999.90;999.90;;;;;;;17.79;48.12;100499.53;4774260;29;100519;-77
2021/07/26 02:53:06;;;;;;;1999.90;999.90;;;;;;;17.76;48.17;100500.47;4772325;29;97123;-75
2021/07/26 02:55:33;;;;;;;1999.90;999.90;;;;;;;17.73;48.33;100500.50;4789437;29;97165;-76
2021/07/26 02:58:01;;;;;;;1999.90;999.90;;;;;;;17.73;48.36;100494.25;4800486;29;99404;-76
2021/07/26 03:00:29;;;;;;;1999.90;999.90;;;;;;;17.73;48.34;100499.63;4788191;29;100830;-75
2021/07/26 03:02:59;;;;;;;1999.90;999.90;;;;;;;17.71;48.48;100513.06;4789894;29;96958;-77
2021/07/26 03:05:27;;;;;;;1999.90;999.90;;;;;;;17.72;48.54;100505.91;4790718;29;96970;-75
2021/07/26 03:07:55;;;;;;;1999.90;999.90;;;;;;;17.71;48.50;100505.00;4789446;29;97613;-75
2021/07/26 03:10:23;;;;;;;1999.90;999.90;;;;;;;17.71;48.46;100512.22;4790000;29;98843;-75
2021/07/26 03:12:51;;;;;;;1999.90;999.90;;;;;;;17.71;48.34;100512.22;4773790;29;97211;-76
2021/07/26 03:15:19;;;;;;;1999.90;999.90;;;;;;;17.69;nan;100514.91;4803143;29;96846;-75
2021/07/26 03:17:47;;;;;;;1999.90;999.90;;;;;;;17.67;48.57;100519.44;4772568;29;99598;-77
2021/07/26 03:20:16;;;;;;;1999.90;999.90;;;;;;;17.67;48.62;100516.75;4788333;29;98905;-76
2021/07/26 03:23:08;;;;;;;1999.90;999.90;;;;;;;17.64;49.05;100511.38;4780912;29;97332;-76
2021/07/26 03:25:40;;;;;;;1999.90;999.90;;;;;;;17.64;48.64;100505.09;4774286;29;96997;-76
2021/07/26 03:28:08;;;;;;;1999.90;999.90;;;;;;;17.64;48.61;100519.44;4783373;29;97616;-75
2021/07/26 03:30:37;;;;;;;1999.90;999.90;;;;;;;17.64;48.69;100516.75;4804243;29;99827;-75
2021/07/26 03:33:05;;;;;;;1999.90;999.90;;;;;;;17.62;48.75;100521.25;4791287;29;97179;-75
2021/07/26 03:35:34;;;;;;;1999.90;999.90;;;;;;;17.60;48.74;100520.38;4793011;29;97110;-76
2021/07/26 03:38:02;;;;;;;1999.90;999.90;;;;;;;17.58;48.78;100516.81;4807935;29;99022;-75
2021/07/26 03:40:30;;;;;;;1999.90;999.90;;;;;;;17.94;49.45;100521.78;4805617;29;100636;-77
2021/07/26 03:42:58;;;;;;;1999.90;999.90;;;;;;;17.70;49.53;100518.50;4794906;29;97047;-75
2021/07/26 03:45:26;;;;;;;1999.90;999.90;;;;;;;17.64;49.55;100514.06;4791927;29;97982;-78
2021/07/26 03:47:56;;;;;;;1999.90;999.90;;;;;;;17.62;49.75;100521.25;4797154;29;97814;-78
2021/07/26 03:50:24;;;;;;;1999.90;999.90;;;;;;;17.59;49.22;100518.63;4814496;29;98899;-76
2021/07/26 03:52:54;;;;;;;1999.90;999.90;;;;;;;17.58;49.33;100524.91;4811846;29;96759;-75
2021/07/26 03:55:25;;;;;;;1999.90;999.90;;;;;;;17.54;49.40;100533.94;4778218;29;97021;-75
2021/07/26 03:57:53;;;;;;;1999.90;999.90;;;;;;;17.52;49.61;100540.22;4795937;29;99415;-77
2021/07/26 04:00:22;;;;;;;1999.90;999.90;;;;;;;17.50;49.43;100532.19;4772424;29;100719;-78
2021/07/26 04:02:56;;;;;;;1999.90;999.90;;;;;;;17.48;49.53;100539.38;4803636;29;96934;-77
2021/07/26 04:05:26;;;;;;;1999.90;999.90;;;;;;;17.44;49.64;100528.66;4783561;29;97234;-76
2021/07/26 04:07:55;;;;;;;1999.90;999.90;;;;;;;17.45;49.56;100522.38;4790272;29;99559;-75
2021/07/26 04:10:23;;;;;;;1999.90;999.90;;;;;;;17.41;49.57;100521.53;4792555;29;97795;-77
2021/07/26 04:12:53;;;;;;;1999.90;999.90;;;;;;;17.39;49.48;100523.34;4793337;29;96821;-76
2021/07/26 04:15:21;;;;;;;1999.90;999.90;;;;;;;17.38;49.44;100524.25;4793475;29;96980;-77
2021/07/26 04:17:48;;;;;;;1999.90;999.90;;;;;;;17.36;49.43;100539.50;4787862;29;99335;-77
2021/07/26 04:20:16;;;;;;;1999.90;999.90;;;;;;;17.36;49.30;100535.91;4787548;29;100438;-76
2021/07/26 04:22:44;;;;;;;1999.90;999.90;;;;;;;17.33;49.47;100539.50;4771701;29;96951;-76
2021/07/26 04:25:14;;;;;;;1999.90;999.90;;;;;;;17.31;49.51;100543.13;4786839;29;98352;-77
2021/07/26 04:27:42;;;;;;;1999.90;999.90;;;;;;;17.31;49.26;100540.44;4787424;29;101006;-75
2021/07/26 04:30:11;;;;;;;1999.90;999.90;;;;;;;17.31;49.25;100535.06;4767191;29;99648;-76
2021/07/26 04:32:43;;;;;;;1999.90;999.90;;;;;;;17.30;49.23;100538.63;4782245;29;96954;-77
2021/07/26 04:35:12;;;;;;;1999.90;999.90;;;;;;;17.29;49.12;100548.50;4786333;29;97147;-76
2021/07/26 04:37:40;;;;;;;1999.90;999.90;;;;;;;17.28;49.28;100545.84;4779584;29;100561;-78
2021/07/26 04:40:10;;;;;;;1999.90;999.90;;;;;;;17.23;49.40;100543.19;4780697;29;97621;-75
2021/07/26 04:42:40;;;;;;;1999.90;999.90;;;;;;;17.21;49.33;100544.13;4789003;29;96948;-76
2021/07/26 04:45:10;;;;;;;1999.90;999.90;;;;;;;17.21;49.32;100547.69;4779465;29;97247;-76
2021/07/26 04:47:40;;;;;;;1999.90;999.90;;;;;;;17.21;49.29;100541.44;4783114;29;99811;-76
2021/07/26 04:50:11;;;;;;;1999.90;999.90;;;;;;;17.17;49.41;100536.97;4769544;29;99142;-76
2021/07/26 04:52:40;;;;;;;1999.90;999.90;;;;;;;17.14;49.43;100543.28;4773440;29;96963;-76
2021/07/26 04:55:09;;;;;;;1999.90;999.90;;;;;;;17.15;49.36;100550.44;4779427;29;97309;-77
2021/07/26 04:57:36;;;;;;;1999.90;999.90;;;;;;;17.14;49.21;100550.47;4797263;29;99555;-76
2021/07/26 05:00:07;;;;;;;1999.90;999.90;;;;;;;17.07;49.41;100547.81;4795522;29;98053;-77
2021/07/26 05:02:35;;;;;;;1999.90;999.90;;;;;;;17.07;49.34;100546.94;4787654;29;97101;-76
2021/07/26 05:05:04;;;;;;;1999.90;999.90;;;;;;;17.06;49.24;100545.16;4771729;29;96966;-77
2021/07/26 05:07:32;;;;;;;1999.90;999.90;;;;;;;17.06;49.35;100550.53;4781621;29;101068;-76
2021/07/26 05:10:00;;;;;;;1999.90;999.90;;;;;;;17.05;49.58;100546.06;4788006;29;100668;-76
2021/07/26 05:12:28;;;;;;;1999.90;999.90;;;;;;;17.06;49.54;100540.69;4791387;29;96934;-77
2021/07/26 05:14:56;;;;;;;1999.90;999.90;;;;;;;17.08;49.51;100540.66;4777922;29;97012;-76
2021/07/26 05:17:26;;;;;;;1999.90;999.90;;;;;;;17.09;49.68;100539.72;4776290;29;101103;-75
2021/07/26 05:19:54;;;;;;;1999.90;999.90;;;;;;;17.05;49.81;100538.88;4790921;29;98263;-76
2021/07/26 05:22:23;;;;;;;1999.90;999.90;;;;;;;17.03;49.81;100539.81;4792962;29;97127;-76
2021/07/26 05:24:51;;;;;;;1999.90;999.90;;;;;;;17.02;49.86;100549.66;4791860;29;96957;-75
2021/07/26 05:27:20;;;;;;;1999.90;999.90;;;;;;;17.04;50.04;100546.97;4792285;29;101094;-76
2021/07/26 05:29:51;;;;;;;1999.90;999.90;;;;;;;17.04;49.99;100549.66;4775109;29;100206;-76
2021/07/26 05:32:19;;;;;;;1999.90;999.90;;;;;;;17.03;49.76;100547.88;4792726;29;96855;-76
2021/07/26 05:34:49;;;;;;;1999.90;999.90;;;;;;;17.02;49.86;100538.00;4792209;29;97292;-76
2021/07/26 05:37:17;;;;;;;1999.90;999.90;;;;;;;17.04;49.95;100549.66;4791237;29;100602;-76
2021/07/26 05:39:45;;;;;;;1999.90;999.90;;;;;;;17.06;50.11;100547.84;4792458;29;97564;-78
2021/07/26 05:42:13;;;;;;;1999.90;999.90;;;;;;;17.08;50.06;100546.03;4791048;29;97007;-78
2021/07/26 05:44:42;;;;;;;1999.90;999.90;;;;;;;17.11;50.07;100545.13;4793735;29;97015;-75
2021/07/26 05:47:10;;;;;;;1999.90;999.90;;;;;;;17.14;50.01;100554.06;4782086;29;99297;-75
2021/07/26 05:49:38;;;;;;;1999.90;999.90;;;;;;;17.13;50.16;100552.25;4785204;29;99532;-76
2021/07/26 05:52:08;;;;;;;1999.90;999.90;;;;;;;17.09;50.09;100548.69;4793221;29;97350;-76
2021/07/26 05:54:35;;;;;;;1999.90;999.90;;;;;;;17.06;49.91;100559.50;4791495;29;96983;-78
2021/07/26 05:57:09;;;;;;;1999.90;999.90;;;;;;;17.02;50.00;100557.72;4790047;29;99743;-76
2021/07/26 05:59:37;;;;;;;1999.90;999.90;;;;;;;16.98;50.23;100560.47;4775541;29;99256;-76
2021/07/26 06:02:06;;;;;;;1999.90;999.90;;;;;;;16.96;50.22;100559.59;4776425;29;96817;-77
2021/07/26 06:04:34;;;;;;;1999.90;999.90;;;;;;;16.95;50.08;100558.69;4792207;29;96923;-77
2021/07/26 06:07:03;;;;;;;1999.90;999.90;;;;;;;16.97;50.14;100561.38;4806330;29;100765;-77
2021/07/26 06:09:32;;;;;;;1999.90;999.90;;;;;;;16.98;50.13;100555.09;4775669;29;99401;-76
2021/07/26 06:12:00;;;;;;;1999.90;999.90;;;;;;;17.01;50.02;100555.06;4790077;29;97498;-77
2021/07/26 06:14:27;;;;;;;1999.90;999.90;;;;;;;17.09;49.94;100547.78;4790033;29;96931;-76
2021/07/26 06:16:59;;;;;;;1999.90;999.90;;;;;;;17.04;50.06;100558.59;4790781;29;100925;-77
2021/07/26 06:19:27;;;;;;;1999.90;999.90;;;;;;;17.05;50.16;100554.13;4792231;29;98633;-76
2021/07/26 06:21:56;;;;;;;1999.90;999.90;;;;;;;17.08;50.19;100559.47;4789736;29;97031;-76
2021/07/26 06:24:24;;;;;;;1999.90;999.90;;;;;;;17.12;50.00;100555.84;4806315;29;98151;-77
2021/07/26 06:26:55;;;;;;;1999.90;999.90;;;;;;;17.17;49.74;100559.38;4790034;29;99355;-78
2021/07/26 06:29:23;;;;;;;1999.90;999.90;;;;;;;17.20;49.92;100564.72;4789588;29;99047;-76
2021/07/26 06:31:52;;;;;;;1999.90;999.90;;;;;;;17.24;49.89;100560.22;4775473;29;96801;-77
2021/07/26 06:34:20;;;;;;;1999.90;999.90;;;;;;;17.26;49.84;100566.47;4791053;29;96780;-77
2021/07/26 06:36:47;;;;;;;1999.90;999.90;;;;;;;17.29;49.80;100570.00;4789170;29;99452;-76
2021/07/26 06:39:15;;;;;;;1999.90;999.90;;;;;;;17.31;49.75;100568.22;4790438;29;100573;-75
2021/07/26 06:41:43;;;;;;;1999.90;999.90;;;;;;;17.35;49.65;100575.34;4775108;29;96881;-76
2021/07/26 06:44:13;;;;;;;1999.90;999.90;;;;;;;17.38;49.61;100570.00;4791535;29;96877;-76
2021/07/26 06:46:41;;;;;;;1999.90;999.90;;;;;;;17.41;49.52;100574.44;4789492;29;100641;-78
2021/07/26 06:49:09;;;;;;;1999.90;999.90;;;;;;;17.46;49.63;100573.47;4791256;29;97569;-78
2021/07/26 06:51:36;;;;;;;1999.90;999.90;;;;;;;17.48;49.72;100566.28;4790534;29;97530;-75
2021/07/26 06:54:04;;;;;;;1999.90;999.90;;;;;;;17.52;49.59;100567.13;4792440;29;96883;-76
2021/07/26 06:56:32;;;;;;;1999.90;999.90;;;;;;;17.52;49.28;100559.06;4789482;29;99330;-76
2021/07/26 06:59:00;;;;;;;1999.90;999.90;;;;;;;17.56;49.53;100561.72;4775096;29;100557;-76
2021/07/26 07:01:29;;;;;;;1999.90;999.90;;;;;;;17.60;49.47;100560.75;4791406;29;97267;-77
2021/07/26 07:03:57;;;;;;;1999.90;999.90;;;;;;;17.63;49.45;100566.13;4789873;29;96972;-79
2021/07/26 07:06:27;;;;;;;1999.90;999.90;;;;;;;17.65;49.66;100564.31;4789393;29;99470;-76
2021/07/26 07:08:55;;;;;;;1999.90;999.90;;;;;;;17.66;49.44;100566.06;4790936;29;99369;-76
2021/07/26 07:11:24;;;;;;;1999.90;999.90;;;;;;;17.66;49.57;100567.88;4790348;29;97416;-76
2021/07/26 07:13:54;;;;;;;1999.90;999.90;;;;;;;17.65;49.63;100558.03;4773731;29;96774;-77
2021/07/26 07:16:23;;;;;;;1999.90;999.90;;;;;;;17.69;49.46;100559.78;4790458;29;99303;-78
2021/07/26 07:18:53;;;;;;;1999.90;999.90;;;;;;;17.72;49.47;100570.50;4775543;29;99363;-76
2021/07/26 07:21:25;;;;;;;1999.90;999.90;;;;;;;17.71;50.14;100574.97;4788533;29;97391;-78
2021/07/26 07:23:54;;;;;;;1999.90;999.90;;;;;;;17.78;49.24;100570.44;4781874;29;96856;-76
2021/07/26 07:26:23;;;;;;;1999.90;999.90;;;;;;;17.82;49.39;100575.75;4790647;29;97994;-76
2021/07/26 07:28:51;;;;;;;1999.90;999.90;;;;;;;17.84;49.27;100576.63;4788459;29;99696;-76
2021/07/26 07:31:23;;;;;;;1999.90;999.90;;;;;;;17.88;49.31;100575.69;4790082;29;96647;-79
2021/07/26 07:33:53;;;;;;;1999.90;999.90;;;;;;;17.93;48.97;100570.22;4790624;29;97239;-75
2021/07/26 07:36:21;;;;;;;1999.90;999.90;;;;;;;17.98;48.92;100573.78;4790696;29;100338;-75
2021/07/26 07:38:49;;;;;;;1999.90;999.90;;;;;;;18.07;48.99;100578.19;4788427;29;97670;-75
2021/07/26 07:41:17;;;;;;;1999.90;999.90;;;;;;;18.11;48.91;100575.44;4798176;29;96835;-75
2021/07/26 07:43:46;;;;;;;1999.90;999.90;;;;;;;18.17;48.66;100571.78;4790489;29;96983;-76
2021/07/26 07:46:14;;;;;;;1999.90;999.90;;;;;;;18.25;48.60;100576.16;4791662;29;98756;-76
2021/07/26 07:48:42;;;;;;;1999.90;999.90;;;;;;;18.32;48.85;100583.22;4774588;29;100467;-77
2021/07/26 07:51:12;;;;;;;1999.90;999.90;;;;;;;18.39;48.69;100571.44;4789587;29;96875;-78
2021/07/26 07:53:40;;;;;;;1999.90;999.90;;;;;;;18.47;48.34;100574.03;4790264;29;98156;-76
2021/07/26 07:56:07;;;;;;;1999.90;999.90;;;;;;;18.55;48.49;100572.13;4773501;29;99697;-76
2021/07/26 07:58:36;;;;;;;1999.90;999.90;;;;;;;18.63;48.32;100586.38;4765887;29;101935;-76
2021/07/26 08:01:04;;;;;;;1999.90;999.90;;;;;;;18.68;48.32;100581.78;4790003;29;96976;-78
2021/07/26 08:03:32;;;;;;;1999.90;999.90;;;;;;;18.76;48.25;100585.31;4799760;29;96806;-76
2021/07/26 08:06:01;;;;;;;1999.90;999.90;;;;;;;18.83;47.97;100578.91;4774701;29;99404;-76
2021/07/26 08:08:31;;;;;;;1999.90;999.90;;;;;;;18.92;48.00;100589.53;4775497;29;99587;-76
2021/07/26 08:10:59;;;;;;;1999.90;999.90;;;;;;;18.97;47.51;100582.25;4789801;29;96855;-76
2021/07/26 08:13:29;;;;;;;1999.90;999.90;;;;;;;19.06;47.34;100582.13;4789062;29;96986;-79
2021/07/26 08:15:56;;;;;;;1999.90;999.90;;;;;;;19.11;47.43;100580.22;4789785;29;97990;-77
2021/07/26 08:18:25;;;;;;;1999.90;999.90;;;;;;;19.20;46.97;100590.88;4791820;29;97577;-77
2021/07/26 08:20:53;;;;;;;1999.90;999.90;;;;;;;19.25;47.26;100572.78;4807850;29;96903;-77
2021/07/26 08:23:21;;;;;;;1999.90;999.90;;;;;;;19.32;47.14;100576.28;4793376;29;96949;-79
2021/07/26 08:25:50;;;;;;;1999.90;999.90;;;;;;;19.39;46.95;100581.53;4793076;29;100515;-77
2021/07/26 08:28:18;;;;;;;1999.90;999.90;;;;;;;19.42;46.82;100581.50;4792742;29;99278;-76
2021/07/26 08:30:46;;;;;;;1999.90;999.90;;;;;;;19.48;46.28;100575.97;4771208;29;96812;-78
2021/07/26 08:33:14;;;;;;;1999.90;999.90;;;;;;;19.54;46.09;100578.56;4795436;29;97261;-76
2021/07/26 08:35:42;;;;;;;1999.90;999.90;;;;;;;19.56;46.17;100573.13;4793002;29;101086;-76
2021/07/26 08:38:10;;;;;;;1999.90;999.90;;;;;;;19.61;46.36;100572.13;4794235;29;97648;-77
2021/07/26 08:40:38;;;;;;;1999.90;999.90;;;;;;;19.66;46.24;100575.63;4793680;29;97494;-76
2021/07/26 08:43:08;;;;;;;1999.90;999.90;;;;;;;19.74;45.75;100579.06;4793408;29;96792;-78
2021/07/26 08:45:36;;;;;;;1999.90;999.90;;;;;;;19.80;46.03;100578.06;4793363;29;97604;-76
2021/07/26 08:48:06;;;;;;;1999.90;999.90;;;;;;;19.85;45.68;100582.44;4793350;29;97563;-76
2021/07/26 08:50:35;;;;;;;1999.90;999.90;;;;;;;19.92;45.76;100575.09;4778081;29;97449;-76
2021/07/26 08:53:05;;;;;;;1999.90;999.90;;;;;;;19.95;45.58;100573.28;4794101;29;96938;-76
2021/07/26 08:55:34;;;;;;;1999.90;999.90;;;;;;;20.04;45.73;100566.78;4800265;29;98057;-76
2021/07/26 08:58:03;;;;;;;1999.90;999.90;;;;;;;20.10;45.13;100563.06;4793262;29;99299;-76
2021/07/26 09:00:32;;;;;;;1999.90;999.90;;;;;;;20.16;45.05;100571.03;4792917;29;96945;-76
2021/07/26 09:03:02;;;;;;;1999.90;999.90;;;;;;;20.20;45.29;100560.13;4795081;29;97102;-75
2021/07/26 09:05:30;;;;;;;1999.90;999.90;;;;;;;20.25;44.90;100558.22;4783539;29;97920;-76
2021/07/26 09:08:00;;;;;;;1999.90;999.90;;;;;;;20.32;45.06;100561.69;4776918;29;99248;-76
2021/07/26 09:10:33;;;;;;;1999.90;999.90;;;;;;;20.40;44.80;100560.59;4794694;29;96915;-76
2021/07/26 09:13:01;;;;;;;1999.90;999.90;;;;;;;20.48;44.32;100565.81;4808497;29;97281;-76
2021/07/26 09:15:32;;;;;;;1999.90;999.90;;;;;;;20.53;44.20;100558.53;4776292;29;99608;-78
2021/07/26 09:18:02;;;;;;;1999.90;999.90;;;;;;;20.58;44.11;100560.19;4792512;29;99493;-76
2021/07/26 09:20:31;;;;;;;1999.90;999.90;;;;;;;20.65;44.32;100566.31;4792494;29;96813;-77
2021/07/26 09:22:59;;;;;;;1999.90;999.90;;;;;;;20.70;44.31;100568.00;4794234;29;97221;-76
2021/07/26 09:25:28;;;;;;;1999.90;999.90;;;;;;;20.75;44.16;100576.91;4793019;29;99490;-77
2021/07/26 09:28:07;;;;;;;1999.90;999.90;;;;;;;20.78;43.65;100578.63;4777354;29;100965;-78
2021/07/26 09:30:45;;;;;;;1999.90;999.90;;;;;;;20.82;43.07;100580.34;4806348;29;97477;-76
2021/07/26 09:33:28;;;;;;;1999.90;999.90;;;;;;;20.84;42.95;100581.19;4793211;29;96801;-77
2021/07/26 09:36:04;;;;;;;1999.90;999.90;;;;;;;20.90;42.49;100572.94;4794429;29;97582;-76
2021/07/26 09:38:32;;;;;;;1999.90;999.90;;;;;;;20.96;43.30;100572.78;4792132;29;100465;-76
2021/07/26 09:41:01;;;;;;;1999.90;999.90;;;;;;;21.01;42.68;100576.28;4778515;29;97046;-76
2021/07/26 09:43:29;;;;;;;1999.90;999.90;;;;;;;21.05;42.86;100574.38;4790658;29;96958;-76
2021/07/26 09:45:59;;;;;;;1999.90;999.90;;;;;;;21.10;42.55;100575.16;4777689;29;99863;-76
2021/07/26 09:48:28;;;;;;;1999.90;999.90;;;;;;;21.13;42.50;100575.09;4808025;29;100785;-77
2021/07/26 09:50:57;;;;;;;1999.90;999.90;;;;;;;21.18;42.31;100575.88;4796459;29;96951;-78
2021/07/26 09:53:25;;;;;;;1999.90;999.90;;;;;;;21.22;42.19;100574.84;4815266;29;96810;-76
2021/07/26 09:55:54;;;;;;;1999.90;999.90;;;;;;;21.28;42.08;100569.28;4812816;29;99835;-75
2021/07/26 09:58:35;;;;;;;1999.90;999.90;;;;;;;21.30;41.16;100573.75;4794615;29;99146;-76
2021/07/26 10:01:06;;;;;;;1999.90;999.90;;;;;;;21.38;41.57;100582.53;4777852;29;97201;-75
2021/07/26 10:03:36;;;;;;;1999.90;999.90;;;;;;;21.45;41.35;100578.72;4791471;29;96877;-76
2021/07/26 10:06:04;;;;;;;1999.90;999.90;;;;;;;21.49;41.54;100575.03;4783393;29;99345;-76
2021/07/26 10:08:32;;;;;;;1999.90;999.90;;;;;;;21.55;41.47;100574.84;4789233;29;99426;-77
2021/07/26 10:11:00;;;;;;;1999.90;999.90;;;;;;;21.59;41.34;100576.56;4792093;29;97276;-77
2021/07/26 10:13:29;;;;;;;1999.90;999.90;;;;;;;21.64;41.32;100574.59;4791513;29;96881;-79
2021/07/26 10:15:57;;;;;;;1999.90;999.90;;;;;;;21.67;41.19;100571.81;4789502;29;99480;-78
2021/07/26 10:18:26;;;;;;;1999.90;999.90;;;;;;;21.68;40.89;100576.31;4790108;29;97800;-79
2021/07/26 10:20:58;;;;;;;1999.90;999.90;;;;;;;21.68;37.96;100576.31;4792512;29;96917;-76
2021/07/26 10:23:32;;;;;;;1999.90;999.90;;;;;;;21.70;39.13;100574.47;4791997;29;96953;-76
2021/07/26 10:26:01;;;;;;;1999.90;999.90;;;;;;;21.75;40.39;100577.03;4776862;29;100556;-76
2021/07/26 10:28:32;;;;;;;1999.90;999.90;;;;;;;21.79;40.11;100576.03;4793828;29;97712;-77
2021/07/26 10:31:00;;;;;;;1999.90;999.90;;;;;;;21.83;40.13;100569.59;4792035;29;97264;-78
2021/07/26 10:33:29;;;;;;;1999.90;999.90;;;;;;;21.86;39.97;100566.78;4774621;29;97425;-76
2021/07/26 10:35:57;;;;;;;1999.90;999.90;;;;;;;21.89;40.01;100564.88;4789249;29;96860;-76
2021/07/26 10:38:54;;;;;;;1999.90;999.90;;;;;;;21.98;38.19;100562.84;4790925;29;98887;-76
2021/07/26 10:42:00;;;;;;;1999.90;999.90;;;;;;;22.06;38.55;100560.78;4775837;29;96868;-76
2021/07/26 10:44:43;;;;;;;1999.90;999.90;;;;;;;22.13;38.79;100562.41;4774052;29;97122;-76
2021/07/26 10:47:18;;;;;;;1999.90;999.90;;;;;;;22.19;39.09;100556.78;4788358;29;99707;-77
2021/07/26 10:50:13;;;;;;;1999.90;999.90;;;;;;;22.25;38.29;100557.50;4790716;29;97616;-77
2021/07/26 10:52:50;;;;;;;1999.90;999.90;;;;;;;22.34;39.05;100556.34;4789591;29;97014;-75
2021/07/26 10:55:56;;;;;;;1999.90;999.90;;;;;;;22.39;37.12;100559.81;4775290;29;97198;-76